Create Custom Reports and Graphics: Custom Report

Belmont 8000'

Squaw Valley

11/26/20 4:15 AM (-08:00)
Updated Every 15 Minutes
Temp 16.9 °F   11.4
RH 85 %   7
Dew Pt 13.2 °F   9.3
Wet Bulb 15.8 °F   10.3
Wind Dir ENE | 65 °
Wind Spd 14.0 mph   2.2
Wind Gust 20.3 mph   2.4
WindChill 2.9 °F   15.8
Daily Min Temp 15.2 °F   13.1
Daily Max Temp 17.5 °F   13.9
Latest Rain 0.00 In
Daily Rain 0.00 In
New Snow 0.0 in
SnowDepth 23.4 in

Last 24 Hours

Squaw-Belmont 8000'

Hourly Data | America/Los_Angeles
as of 11/26/20 4:21 AM PST
Date & Time Temp (°F) RH (%) Dew Pt (°F) Wet Bulb (°F) Wind Dir (°) Wind Spd (mph) Wind Gust (mph) WindChill (°F) Latest Rain (In) New Snow (in) SnowDepth (in) Daily Min Temp (°F) Daily Max Temp (°F) Daily Rain (In)
11/26/20 - 0400 16.8 87 13.5 15.7 ENE | 64 10.6 20.6 3.8 0.00 0.0 23.4 15.2 17.5 0.00
11/26/20 - 0300 15.3 97 14.5 15.0 ENE | 73 6.0 13.4 7.1 0.00 0.0 23.4 15.2 17.5 0.00
11/26/20 - 0200 15.7 95 14.5 15.3 ENE | 71 5.6 13.4 9.0 0.00 0.0 23.4 15.5 17.5 0.00
11/26/20 - 0100 16.7 91 14.5 16.0 E | 81 6.8 15.4 8.4 0.00 0.0 23.4 16.6 17.5 0.00
11/26/20 - 0000 17.1 92 15.2 16.5 E | 81 6.1 13.0 9.7 0.00 0.0 23.4 17.0 31.4 0.00
11/25/20 - 2300 18.2 87 15.0 17.2 E | 80 5.5 14.2 11.8 0.00 0.0 23.4 18.0 31.4 0.00
11/25/20 - 2200 18.7 86 15.1 17.6 ENE | 74 3.0 12.3 16.2 0.00 0.0 23.5 18.7 31.4 0.00
11/25/20 - 2100 19.0 89 16.3 18.1 ENE | 66 1.9 8.9 18.4 0.00 0.0 23.5 19.0 31.4 0.00
11/25/20 - 2000 20.9 92 19.1 20.3 NE | 34 3.9 9.8 17.6 0.00 0.0 23.5 20.9 31.4 0.00
11/25/20 - 1900 22.6 91 20.4 21.8 NW | 318 3.1 9.1 19.6 0.00 0.0 23.5 21.5 31.4 0.00
11/25/20 - 1800 22.7 93 20.9 22.1 WSW | 250 6.9 13.4 16.1 0.00 0.0 23.5 22.7 31.4 0.00
11/25/20 - 1700 24.9 86 21.2 23.5 W | 260 3.4 9.4 22.7 0.00 0.0 23.6 24.9 31.4 0.00
11/25/20 - 1600 26.7 76 20.2 24.2 WSW | 239 6.9 15.2 19.5 0.00 0.0 23.6 25.9 31.4 0.00
11/25/20 - 1500 26.5 81 21.5 24.6 WSW | 238 9.8 19.0 18.0 0.00 0.0 23.6 25.9 31.4 0.00
11/25/20 - 1400 27.5 74 20.5 24.8 SW | 226 11.0 18.4 17.9 0.00 0.0 23.6 25.9 31.4 0.00
11/25/20 - 1300 27.3 81 22.3 25.4 SW | 233 11.4 21.2 18.8 0.00 0.0 23.6 25.9 31.4 0.00
11/25/20 - 1200 28.0 80 22.5 25.8 SW | 230 14.8 30.2 16.6 0.00 0.1 23.6 25.9 31.4 0.00
11/25/20 - 1100 26.8 84 22.6 25.2 SW | 226 17.7 32.8 14.6 0.00 0.2 23.6 25.9 31.4 0.00
11/25/20 - 1000 26.9 90 24.3 25.9 SW | 228 17.7 35.3 14.0 0.00 0.2 23.6 25.9 31.4 0.00
11/25/20 - 0900 26.4 90 23.9 25.4 SW | 220 15.1 33.0 15.3 0.00 0.1 23.7 26.4 31.4 0.00
11/25/20 - 0800 27.1 87 23.6 25.8 SW | 217 14.4 32.5 15.4 0.00 0.0 23.7 26.4 31.4 0.00
11/25/20 - 0700 26.8 83 22.2 25.0 SW | 215 14.6 33.6 15.4 0.00 0.0 23.7 26.5 31.4 0.00
11/25/20 - 0600 27.1 80 21.8 25.1 SW | 214 13.7 27.6 16.7 0.00 0.0 23.7 26.8 31.4 0.00
11/25/20 - 0500 28.2 77 22.0 25.8 SSW | 202 12.0 30.8 18.7 0.00 0.0 23.7 28.0 31.4 0.00
11/25/20 - 0400 28.4 80 23.0 26.3 SSW | 205 13.0 31.8 18.8 0.00 0.0 23.8 28.2 31.4 0.00
Max 28.4 97 24.3 26.3 - 17.7 35.3 22.7 0.00 0.2 23.8 28.2 31.4 0.00
Avg 23.3 86 19.6 21.9 - 9.4 20.6 15.2 0.00 0.0 23.6 - - -
Min 15.3 74 13.5 15.0 - 1.9 8.9 3.8 0.00 0.0 23.4 15.2 17.5 0.00
Total - - - - - - - - 0.00 - - - - -

Last 30 Days

Squaw-Belmont 8000'

Daily Data | America/Los_Angeles
as of 11/26/20 4:21 AM PST
Date Daily Max Temp (°F) Time of Max Temp Daily Min Temp (°F) Time of Min Temp Daily Rain (In) Seasonal Rainfall (In) New Snow (in) SnowDepth (in) Wind Spd (mph) Daily Max Wind (mph) Time of Max Wind Max Wind Dir (°) Max RH (%) Min RH (%) Wet Bulb (°F) WetB Hrs <28F (hrs) Bat Volt Min Day (V)
11/25/20 31.4 0001 17.0 2359 0.00 103.20 0.0 23.4 10.4 39.4 0156 W | 271 97 58 23.9 23.3 13.0
11/24/20 51.4 1319 24.7 0003 0.00 103.20 0.0 23.8 3.9 27.6 2359 SW | 226 97 25 29.1 8.2 12.7
11/23/20 42.3 1231 24.8 2356 0.04 103.20 0.0 24.2 5.0 20.2 0046 NW | 306 98 32 26.3 18.4 13.0
11/22/20 43.6 1247 26.8 2143 0.00 103.20 0.0 24.6 9.6 36.9 2110 SW | 214 95 27 28.6 8.6 13.0
11/21/20 49.5 1158 29.6 0137 0.00 103.20 0.0 25.1 1.3 7.3 1927 SSE | 164 82 23 28.3 13.0 13.0
11/20/20 42.7 1310 22.5 0521 0.00 103.20 0.0 25.6 0.6 5.9 2301 N | 2 100 50 26.9 17.4 13.0
11/19/20 40.9 1300 22.1 0553 0.34 103.20 0.0 26.6 4.8 32.0 0127 SW | 235 100 50 24.8 20.1 13.0
11/18/20 31.4 1109 24.7 0001 2.51 102.90 3.3 28.2 14.3 48.0 1222 SE | 143 100 98 28.5 7.6 13.1
11/17/20 46.4 0009 27.8 2357 0.52 100.30 7.9 17.4 18.9 47.6 0515 S | 178 100 28 30.9 0.4 13.0
11/16/20 60.6 1229 39.6 0017 0.00 99.80 0.0 8.3 9.3 39.9 2328 SSW | 213 41 12 35.0 0.0 13.0
11/15/20 40.9 2302 31.6 0016 0.00 99.80 0.0 9.1 12.6 36.2 0358 SSW | 209 87 19 29.9 7.5 12.7
11/14/20 42.0 1147 23.4 0326 0.34 99.80 0.0 9.6 12.4 34.5 1737 SSE | 158 99 16 23.8 23.7 13.0
11/13/20 30.2 1648 24.2 0933 0.91 99.50 9.0 9.9 16.6 58.9 1501 SSW | 198 99 40 25.8 17.9 13.1
11/12/20 41.5 1237 26.1 0338 0.00 98.60 0.0 5.5 9.3 29.9 2115 SW | 222 47 16 22.7 22.4 13.0
11/11/20 37.5 1309 25.9 0031 0.00 98.60 0.0 5.4 8.4 23.0 0451 WSW | 258 59 10 21.8 24.0 13.0
11/10/20 43.7 1125 21.5 0307 0.00 98.60 0.0 5.2 6.8 22.9 1326 NW | 313 100 21 24.0 20.0 13.0
11/9/20 29.9 1343 11.0 0123 0.00 98.60 0.0 5.9 3.8 14.9 2140 N | 353 96 31 17.6 24.0 13.1
11/8/20 20.8 0004 11.5 2323 0.54 98.60 0.0 6.7 7.4 34.6 0247 W | 275 98 91 14.3 24.0 13.1
11/7/20 26.6 1055 15.6 0335 0.12 98.00 2.8 4.9 8.7 34.5 1816 WSW | 248 98 73 19.4 24.0 13.1
11/6/20 45.4 0001 17.4 0001 0.14 97.90 0.0 102.3 9.8 38.0 0748 S | 179 100 39 27.0 14.5 13.0
11/5/20 67.8 1254 45.2 2249 0.05 97.80 0.0 101.8 4.5 22.3 1428 WSW | 252 40 15 38.0 0.0 12.9
11/4/20 63.8 1229 45.0 0531 0.00 97.70 - - 3.8 15.0 0232 S | 176 40 13 37.5 0.0 13.2
11/3/20 60.5 1301 44.8 0627 0.00 97.70 - - 5.9 17.6 1349 SW | 221 39 17 36.4 0.0 13.2
11/2/20 68.9 1156 47.4 1959 0.00 97.70 - - 2.7 16.7 1633 WSW | 248 30 13 37.6 0.0 13.2
11/1/20 69.7 1250 47.5 0037 0.00 97.70 - - 1.8 12.2 1605 SW | 228 25 11 37.2 0.0 13.2
10/31/20 62.9 1329 44.4 0651 0.00 97.70 - - 2.7 13.5 0055 NW | 307 28 17 36.3 0.0 13.2
10/30/20 64.9 1319 46.2 0351 0.00 97.70 - - 5.1 17.3 2152 NW | 320 29 11 35.3 0.0 13.2
10/29/20 64.5 1439 44.4 0122 0.00 97.70 - - 1.8 11.2 1324 ESE | 122 25 8 34.1 0.0 13.2
10/28/20 65.2 1355 39.5 0400 0.00 97.70 - - 2.5 13.8 0002 ESE | 108 37 7 33.8 0.0 13.2
10/27/20 52.1 1443 28.7 0324 0.00 97.70 - - 7.5 22.2 0309 E | 89 54 18 29.7 8.6 13.3
Max 69.7 - 47.5 - 2.51 - 9.0 102.3 18.9 58.9 - - 100 98 38.0 24.0 13.3
Avg - - - - - - 1.1 23.5 7.1 - - - - - 28.8 - -
Min 20.8 - 11.0 - 0.00 - 0.0 4.9 0.6 5.9 - - 25 7 14.3 0.0 12.7
Calm: 0.0%
Calm: 0.0%